Terminal Aerodrome Forecast
Issued by NWS

Home | Current Version | Previous Version | Text Only | Print | Product List | Glossary On
Versions: 1 2 3 4 5 6 7 8 9 10 11 12 13 14 15 16 17 18 19 20 21 22 23 24 25 26
000
FTUS44 KFWD 032322
TAFDAL
TAF
KDAL 032322Z 0400/0424 19010KT P6SM SCT050 BKN150
     FM040200 18010KT P6SM BKN150
     FM041500 20008KT P6SM SCT030 BKN250
     FM042300 17011KT P6SM SCT050 BKN250=

USA.gov is the U.S. government's official web portal to all federal, state and local government web resources and services.